createdAt,value
2022-08-21T00:00:28.578Z,98994.19
2022-08-21T00:03:04.152Z,98990.03
2022-08-21T00:05:33.273Z,98997.75
2022-08-21T00:08:01.053Z,98989.63
2022-08-21T00:10:28.807Z,98991.06
2022-08-21T00:12:56.580Z,98982.28
2022-08-21T00:15:27.601Z,98979.75
2022-08-21T00:17:56.199Z,98973.19
2022-08-21T00:20:24.564Z,98977.66
2022-08-21T00:22:52.670Z,98973.66
2022-08-21T00:25:24.400Z,98979.56
2022-08-21T00:27:55.054Z,98974.75
2022-08-21T00:30:24.065Z,98968.88
2022-08-21T00:32:53.317Z,98967.53
2022-08-21T00:35:26.133Z,98968.09
2022-08-21T00:37:53.896Z,98974.06
2022-08-21T00:40:26.214Z,98983.03
2022-08-21T00:42:54.154Z,98973.75
2022-08-21T00:45:25.002Z,98985.00
2022-08-21T00:47:54.949Z,98974.53
2022-08-21T00:50:24.241Z,98975.16
2022-08-21T00:52:52.902Z,98966.09
2022-08-21T00:55:22.695Z,98965.69
2022-08-21T00:57:53.804Z,98965.09
2022-08-21T01:00:32.839Z,98970.75
2022-08-21T01:03:07.326Z,98964.87
2022-08-21T01:05:36.842Z,98961.47
2022-08-21T01:08:06.004Z,98967.56
2022-08-21T01:10:34.620Z,98965.69
2022-08-21T01:13:02.367Z,98961.09
2022-08-21T01:15:33.563Z,98962.28
2022-08-21T01:18:01.457Z,98962.28
2022-08-21T01:20:32.750Z,98956.37
2022-08-21T01:23:05.548Z,98954.50
2022-08-21T01:25:35.185Z,98953.72
2022-08-21T01:28:08.221Z,98942.41
2022-08-21T01:30:37.226Z,98948.87
2022-08-21T01:33:05.811Z,98951.09
2022-08-21T01:35:34.745Z,98954.16
2022-08-21T01:38:02.565Z,98938.91
2022-08-21T01:40:30.782Z,98942.53
2022-08-21T01:42:58.471Z,98941.97
2022-08-21T01:45:26.346Z,98932.69
2022-08-21T01:47:54.223Z,98940.69
2022-08-21T01:50:22.354Z,98934.06
2022-08-21T01:52:50.800Z,98940.09
2022-08-21T01:55:21.000Z,98934.63
2022-08-21T01:57:49.401Z,98938.75
2022-08-21T02:00:20.197Z,98937.78
2022-08-21T02:02:47.957Z,98942.50
2022-08-21T02:05:16.414Z,98943.44
2022-08-21T02:07:50.184Z,98940.13
2022-08-21T02:10:23.013Z,98932.94
2022-08-21T02:12:50.794Z,98930.06
2022-08-21T02:15:19.758Z,98927.13
2022-08-21T02:17:50.304Z,98927.56
2022-08-21T02:20:26.177Z,98928.97
2022-08-21T02:22:54.535Z,98927.53
2022-08-21T02:25:23.903Z,98932.53
2022-08-21T02:27:52.043Z,98929.03
2022-08-21T02:30:26.978Z,98926.50
2022-08-21T02:32:54.768Z,98933.56
2022-08-21T02:35:22.337Z,98940.53
2022-08-21T02:37:57.719Z,98941.37
2022-08-21T02:40:29.012Z,98944.44
2022-08-21T02:42:56.700Z,98926.25
2022-08-21T02:45:24.523Z,98926.09
2022-08-21T02:47:54.852Z,98920.03
2022-08-21T02:50:26.691Z,98925.00
2022-08-21T02:52:55.637Z,98922.94
2022-08-21T02:55:27.238Z,98921.47
2022-08-21T02:57:56.230Z,98934.59
2022-08-21T03:00:26.291Z,98920.34
2022-08-21T03:02:54.517Z,98927.69
2022-08-21T03:05:22.485Z,98923.63
2022-08-21T03:07:50.182Z,98918.81
2022-08-21T03:10:17.758Z,98925.22
2022-08-21T03:12:45.482Z,98921.44
2022-08-21T03:15:15.571Z,98932.34
2022-08-21T03:17:43.010Z,98918.75
2022-08-21T03:20:11.603Z,98924.78
2022-08-21T03:22:39.601Z,98921.41
2022-08-21T03:25:07.871Z,98925.09
2022-08-21T03:27:38.768Z,98921.88
2022-08-21T03:30:09.483Z,98927.81
2022-08-21T03:32:37.291Z,98931.00
2022-08-21T03:35:05.912Z,98930.16
2022-08-21T03:37:33.360Z,98928.78
2022-08-21T03:40:01.204Z,98939.16
2022-08-21T03:42:28.986Z,98940.66
2022-08-21T03:44:56.508Z,98935.25
2022-08-21T03:47:24.046Z,98948.84
2022-08-21T03:49:51.774Z,98941.56
2022-08-21T03:52:19.626Z,98952.81
2022-08-21T03:54:47.356Z,98944.69
2022-08-21T03:57:15.236Z,98949.94
2022-08-21T03:59:43.863Z,98956.06
2022-08-21T04:02:12.049Z,98947.06
2022-08-21T04:04:39.872Z,98949.03
2022-08-21T04:07:07.363Z,98954.19
2022-08-21T04:09:34.821Z,98951.25
2022-08-21T04:12:03.348Z,98953.31
2022-08-21T04:14:31.241Z,98950.44
2022-08-21T04:16:58.730Z,98956.22
2022-08-21T04:19:26.498Z,98952.72
2022-08-21T04:21:54.140Z,98957.91
2022-08-21T04:24:22.635Z,98959.00
2022-08-21T04:26:50.937Z,98966.06
2022-08-21T04:29:18.433Z,98965.59
2022-08-21T04:31:45.977Z,98957.94
2022-08-21T04:34:14.544Z,98963.09
2022-08-21T04:36:42.360Z,98964.41
2022-08-21T04:39:10.197Z,98970.06
2022-08-21T04:41:38.632Z,98966.97
2022-08-21T04:44:06.263Z,98977.63
2022-08-21T04:46:33.913Z,98975.38
2022-08-21T04:49:01.699Z,98973.03
2022-08-21T04:51:36.062Z,98976.09
2022-08-21T04:54:10.713Z,98979.28
2022-08-21T04:56:42.472Z,98975.28
2022-08-21T04:59:20.466Z,98978.84
2022-08-21T05:01:48.222Z,98975.06
2022-08-21T05:04:18.020Z,98983.62
2022-08-21T05:06:48.080Z,98981.03
2022-08-21T05:09:17.952Z,98979.53
2022-08-21T05:11:45.911Z,98980.59
2022-08-21T05:14:13.697Z,98988.16
2022-08-21T05:16:42.829Z,98983.66
2022-08-21T05:19:10.885Z,98991.19
2022-08-21T05:21:42.433Z,98992.69
2022-08-21T05:24:10.504Z,98998.84
2022-08-21T05:26:46.408Z,99000.22
2022-08-21T05:29:16.589Z,98995.53
2022-08-21T05:31:44.810Z,98993.41
2022-08-21T05:34:16.207Z,98999.09
2022-08-21T05:36:45.481Z,98999.12
2022-08-21T05:39:13.201Z,99002.56
2022-08-21T05:41:40.851Z,98995.16
2022-08-21T05:44:10.503Z,99002.16
2022-08-21T05:46:39.299Z,98991.09
2022-08-21T05:49:06.802Z,98996.97
2022-08-21T05:51:34.531Z,98984.16
2022-08-21T05:54:02.011Z,98996.41
2022-08-21T05:56:29.540Z,98995.91
2022-08-21T05:58:57.297Z,98991.97
2022-08-21T06:01:25.547Z,98988.09
2022-08-21T06:03:53.442Z,98988.09
2022-08-21T06:06:24.702Z,98982.28
2022-08-21T06:08:53.695Z,98988.37
2022-08-21T06:11:24.682Z,98988.78
2022-08-21T06:13:56.360Z,98993.53
2022-08-21T06:16:24.334Z,98990.91
2022-08-21T06:18:51.842Z,98992.53
2022-08-21T06:21:19.582Z,98993.81
2022-08-21T06:23:47.353Z,98990.66
2022-08-21T06:26:15.473Z,98994.66
2022-08-21T06:28:43.467Z,98992.97
2022-08-21T06:31:13.552Z,99004.31
2022-08-21T06:33:41.066Z,98998.56
2022-08-21T06:36:08.840Z,98998.84
2022-08-21T06:38:37.416Z,98998.84
2022-08-21T06:41:07.448Z,98997.59
2022-08-21T06:43:39.678Z,99002.22
2022-08-21T06:46:08.815Z,99003.69
2022-08-21T06:48:36.527Z,98996.34
2022-08-21T06:51:04.009Z,98997.16
2022-08-21T06:53:31.733Z,99006.84
2022-08-21T06:55:59.277Z,99000.53
2022-08-21T06:58:26.783Z,99003.47
2022-08-21T07:00:57.641Z,99001.81
2022-08-21T07:03:33.532Z,99002.19
2022-08-21T07:06:01.356Z,98997.16
2022-08-21T07:08:29.712Z,99009.06
2022-08-21T07:10:58.597Z,99010.94
2022-08-21T07:13:26.973Z,99009.06
2022-08-21T07:15:54.533Z,99000.50
2022-08-21T07:18:22.303Z,98996.56
2022-08-21T07:20:50.137Z,99002.00
2022-08-21T07:23:33.966Z,99007.44
2022-08-21T07:26:02.254Z,99000.53
2022-08-21T07:28:30.264Z,98998.84
2022-08-21T07:30:59.865Z,98999.28
2022-08-21T07:33:29.440Z,98998.22
2022-08-21T07:35:57.135Z,99005.75
2022-08-21T07:38:25.184Z,98992.91
2022-08-21T07:40:55.569Z,98991.69
2022-08-21T07:43:23.556Z,98990.00
2022-08-21T07:45:51.028Z,98991.28
2022-08-21T07:48:18.863Z,98992.41
2022-08-21T07:50:46.538Z,98986.44
2022-08-21T07:53:14.037Z,98988.88
2022-08-21T07:55:41.752Z,98981.19
2022-08-21T07:58:09.257Z,98983.03
2022-08-21T08:00:36.983Z,98982.66
2022-08-21T08:03:04.835Z,98981.56
2022-08-21T08:05:33.433Z,98978.03
2022-08-21T08:08:00.881Z,98981.91
2022-08-21T08:10:28.946Z,98979.37
2022-08-21T08:12:56.697Z,98984.03
2022-08-21T08:15:26.503Z,98976.09
2022-08-21T08:17:55.883Z,98979.37
2022-08-21T08:20:24.625Z,98977.06
2022-08-21T08:22:52.282Z,98971.28
2022-08-21T08:25:21.423Z,98966.75
2022-08-21T08:27:48.970Z,98970.44
2022-08-21T08:30:19.211Z,98969.19
2022-08-21T08:32:48.246Z,98968.50
2022-08-21T08:35:16.356Z,98964.81
2022-08-21T08:37:46.713Z,98960.00
2022-08-21T08:40:45.415Z,98962.72
2022-08-21T08:43:14.523Z,98967.75
2022-08-21T08:45:47.494Z,98962.91
2022-08-21T08:48:43.197Z,98963.06
2022-08-21T08:51:18.194Z,98963.87
2022-08-21T08:53:51.603Z,98964.31
2022-08-21T08:56:23.806Z,98970.28
2022-08-21T08:58:52.584Z,98969.12
2022-08-21T09:01:21.280Z,98972.09
2022-08-21T09:03:51.124Z,98960.53
2022-08-21T09:06:46.618Z,98973.19
2022-08-21T09:09:23.344Z,98969.22
2022-08-21T09:11:57.426Z,98985.78
2022-08-21T09:14:31.567Z,98980.00
2022-08-21T09:17:33.420Z,98971.34
2022-08-21T09:20:05.013Z,98969.84
2022-08-21T09:22:50.692Z,98963.06
2022-08-21T09:25:25.894Z,98970.34
2022-08-21T09:27:54.059Z,98967.66
2022-08-21T09:30:33.205Z,98961.62
2022-08-21T09:33:01.196Z,98963.09
2022-08-21T09:35:29.204Z,98959.22
2022-08-21T09:38:07.481Z,98961.84
2022-08-21T09:40:44.469Z,98963.13
2022-08-21T09:43:11.857Z,98955.19
2022-08-21T09:45:42.843Z,98956.59
2022-08-21T09:48:22.523Z,98954.47
2022-08-21T09:50:55.108Z,98955.69
2022-08-21T09:53:30.579Z,98949.91
2022-08-21T09:56:24.245Z,98950.84
2022-08-21T09:58:52.977Z,98954.31
2022-08-21T10:01:23.490Z,98958.59
2022-08-21T10:04:10.929Z,98959.13
2022-08-21T10:06:38.821Z,98970.13
2022-08-21T10:09:18.743Z,98956.50
2022-08-21T10:11:58.744Z,98953.31
2022-08-21T10:14:45.879Z,98963.16
2022-08-21T10:17:41.989Z,98965.63
2022-08-21T10:20:26.962Z,98954.47
2022-08-21T10:23:25.297Z,98956.37
2022-08-21T10:26:13.205Z,98957.03
2022-08-21T10:28:53.791Z,98963.13
2022-08-21T10:31:31.025Z,98961.69
2022-08-21T10:34:18.666Z,98959.44
2022-08-21T10:37:12.373Z,98961.69
2022-08-21T10:40:05.045Z,98955.97
2022-08-21T10:42:34.672Z,98956.31
2022-08-21T10:45:09.789Z,98956.91
2022-08-21T10:47:43.040Z,98949.87
2022-08-21T10:50:15.698Z,98951.75
2022-08-21T10:53:05.169Z,98947.97
2022-08-21T10:55:36.734Z,98944.09
2022-08-21T10:58:14.149Z,98947.00
2022-08-21T11:00:46.982Z,98951.25
2022-08-21T11:03:19.214Z,98940.44
2022-08-21T11:05:53.946Z,98941.25
2022-08-21T11:08:31.775Z,98931.28
2022-08-21T11:11:10.278Z,98939.16
2022-08-21T11:13:45.582Z,98945.16
2022-08-21T11:16:20.792Z,98937.03
2022-08-21T11:18:53.685Z,98939.72
2022-08-21T11:21:44.174Z,98933.47
2022-08-21T11:24:37.775Z,98936.84
2022-08-21T11:27:22.624Z,98932.63
2022-08-21T11:29:58.385Z,98944.75
2022-08-21T11:32:39.067Z,98943.44
2022-08-21T11:35:16.405Z,98937.41
2022-08-21T11:37:55.731Z,98940.34
2022-08-21T11:41:19.297Z,98941.53
2022-08-21T11:43:57.039Z,98938.53
2022-08-21T11:46:40.063Z,98925.78
2022-08-21T11:49:20.844Z,98929.59
2022-08-21T11:51:56.935Z,98931.47
2022-08-21T11:54:26.926Z,98914.97
2022-08-21T11:57:05.127Z,98917.84
2022-08-21T11:59:44.544Z,98919.53
2022-08-21T12:02:19.195Z,98926.97
2022-08-21T12:04:57.925Z,98923.69
2022-08-21T12:07:31.860Z,98926.47
2022-08-21T12:10:00.378Z,98921.06
2022-08-21T12:12:39.186Z,98920.50
2022-08-21T12:15:22.202Z,98923.16
2022-08-21T12:17:54.840Z,98917.25
2022-08-21T12:20:22.734Z,98913.41
2022-08-21T12:23:03.584Z,98922.66
2022-08-21T12:25:39.786Z,98916.72
2022-08-21T12:28:13.030Z,98915.47
2022-08-21T12:30:50.157Z,98912.56
2022-08-21T12:33:37.459Z,98912.63
2022-08-21T12:36:10.785Z,98916.34
2022-08-21T12:38:50.012Z,98915.38
2022-08-21T12:41:23.465Z,98916.91
2022-08-21T12:44:05.206Z,98914.94
2022-08-21T12:46:40.457Z,98904.22
2022-08-21T12:49:16.262Z,98904.03
2022-08-21T12:51:52.162Z,98903.63
2022-08-21T12:54:30.782Z,98907.31
2022-08-21T12:57:01.630Z,98903.37
2022-08-21T12:59:30.531Z,98911.50
2022-08-21T13:02:01.653Z,98904.09
2022-08-21T13:04:39.867Z,98908.63
2022-08-21T13:07:11.924Z,98900.47
2022-08-21T13:09:45.734Z,98906.66
2022-08-21T13:12:15.384Z,98902.59
2022-08-21T13:14:46.180Z,98888.69
2022-08-21T13:17:25.954Z,98890.97
2022-08-21T13:20:03.941Z,98886.50
2022-08-21T13:22:33.839Z,98880.69
2022-08-21T13:25:07.091Z,98878.41
2022-08-21T13:27:35.436Z,98878.78
2022-08-21T13:30:11.029Z,98891.50
2022-08-21T13:32:44.783Z,98893.31
2022-08-21T13:35:22.012Z,98893.19
2022-08-21T13:37:52.146Z,98897.88
2022-08-21T13:40:46.182Z,98897.00
2022-08-21T13:43:20.943Z,98892.41
2022-08-21T13:45:50.289Z,98895.44
2022-08-21T13:48:19.677Z,98899.88
2022-08-21T13:50:47.752Z,98900.19
2022-08-21T13:53:45.906Z,98897.50
2022-08-21T13:56:44.098Z,98898.34
2022-08-21T13:59:11.708Z,98898.03
2022-08-21T14:01:44.228Z,98891.13
2022-08-21T14:04:25.184Z,98880.94
2022-08-21T14:06:53.374Z,98887.09
2022-08-21T14:09:43.928Z,98878.78
2022-08-21T14:12:23.589Z,98881.97
2022-08-21T14:14:52.746Z,98885.19
2022-08-21T14:17:36.350Z,98885.44
2022-08-21T14:20:09.731Z,98886.19
2022-08-21T14:22:42.922Z,98893.72
2022-08-21T14:25:20.036Z,98888.06
2022-08-21T14:27:53.235Z,98878.56
2022-08-21T14:30:36.810Z,98885.97
2022-08-21T14:33:10.130Z,98884.34
2022-08-21T14:35:38.327Z,98881.44
2022-08-21T14:38:14.630Z,98881.53
2022-08-21T14:40:43.609Z,98893.25
2022-08-21T14:43:11.162Z,98885.34
2022-08-21T14:45:41.654Z,98886.25
2022-08-21T14:48:09.557Z,98883.38
2022-08-21T14:50:38.797Z,98887.50
2022-08-21T14:53:10.904Z,98886.78
2022-08-21T14:55:59.036Z,98886.78
2022-08-21T14:58:26.879Z,98886.56
2022-08-21T15:00:55.476Z,98883.97
2022-08-21T15:03:23.268Z,98880.09
2022-08-21T15:05:50.989Z,98882.44
2022-08-21T15:08:19.360Z,98874.00
2022-08-21T15:11:10.571Z,98881.31
2022-08-21T15:13:35.593Z,98872.06
2022-08-21T15:16:03.278Z,98879.94
2022-08-21T15:18:31.273Z,98875.84
2022-08-21T15:20:59.277Z,98873.84
2022-08-21T15:23:27.329Z,98868.53
2022-08-21T15:25:55.948Z,98869.78
2022-08-21T15:28:23.889Z,98869.53
2022-08-21T15:30:52.778Z,98873.28
2022-08-21T15:33:20.609Z,98874.31
2022-08-21T15:35:49.041Z,98867.72
2022-08-21T15:38:17.076Z,98866.78
2022-08-21T15:40:47.841Z,98874.59
2022-08-21T15:43:30.184Z,98870.28
2022-08-21T15:46:01.843Z,98867.63
2022-08-21T15:48:29.870Z,98868.84
2022-08-21T15:50:57.368Z,98869.69
2022-08-21T15:53:24.845Z,98871.34
2022-08-21T15:55:52.689Z,98875.47
2022-08-21T15:58:22.801Z,98879.84
2022-08-21T16:00:50.308Z,98870.97
2022-08-21T16:03:20.740Z,98879.66
2022-08-21T16:05:53.829Z,98875.47
2022-08-21T16:08:21.942Z,98876.81
2022-08-21T16:10:49.981Z,98873.69
2022-08-21T16:13:23.467Z,98876.44
2022-08-21T16:15:51.587Z,98874.13
2022-08-21T16:18:19.796Z,98883.75
2022-08-21T16:20:47.529Z,98879.97
2022-08-21T16:23:15.442Z,98883.56
2022-08-21T16:25:43.006Z,98879.03
2022-08-21T16:28:17.436Z,98888.94
2022-08-21T16:30:45.479Z,98884.66
2022-08-21T16:33:32.380Z,98887.69
2022-08-21T16:36:00.769Z,98887.87
2022-08-21T16:38:29.434Z,98883.97
2022-08-21T16:40:56.974Z,98887.03
2022-08-21T16:43:26.527Z,98881.00
2022-08-21T16:45:55.388Z,98885.41
2022-08-21T16:48:23.872Z,98884.41
2022-08-21T16:50:51.659Z,98874.84
2022-08-21T16:53:19.139Z,98870.00
2022-08-21T16:55:47.136Z,98875.91
2022-08-21T16:58:18.725Z,98871.28
2022-08-21T17:00:46.252Z,98864.78
2022-08-21T17:03:17.039Z,98861.03
2022-08-21T17:05:44.970Z,98862.25
2022-08-21T17:08:12.589Z,98868.62
2022-08-21T17:10:43.604Z,98863.31
2022-08-21T17:13:12.397Z,98865.28
2022-08-21T17:15:40.225Z,98859.50
2022-08-21T17:18:16.587Z,98853.03
2022-08-21T17:20:45.114Z,98858.78
2022-08-21T17:23:13.844Z,98856.94
2022-08-21T17:25:44.442Z,98863.50
2022-08-21T17:28:24.408Z,98858.25
2022-08-21T17:30:53.640Z,98862.59
2022-08-21T17:33:21.536Z,98868.91
2022-08-21T17:35:49.043Z,98866.56
2022-08-21T17:38:16.810Z,98868.91
2022-08-21T17:40:46.989Z,98866.19
2022-08-21T17:43:15.293Z,98870.09
2022-08-21T17:45:43.601Z,98871.19
2022-08-21T17:48:11.745Z,98876.91
2022-08-21T17:50:40.185Z,98881.44
2022-08-21T17:53:07.978Z,98882.16
2022-08-21T17:55:36.514Z,98882.50
2022-08-21T17:58:04.294Z,98884.62
2022-08-21T18:00:32.377Z,98878.41
2022-08-21T18:03:07.611Z,98877.25
2022-08-21T18:05:35.732Z,98864.09
2022-08-21T18:08:03.709Z,98876.62
2022-08-21T18:10:31.261Z,98873.94
2022-08-21T18:13:00.311Z,98877.97
2022-08-21T18:15:28.819Z,98888.72
2022-08-21T18:17:56.333Z,98883.53
2022-08-21T18:20:24.090Z,98881.13
2022-08-21T18:22:52.196Z,98879.09
2022-08-21T18:25:21.003Z,98882.78
2022-08-21T18:27:49.732Z,98881.84
2022-08-21T18:30:20.724Z,98891.75
2022-08-21T18:32:50.539Z,98888.13
2022-08-21T18:35:38.489Z,98899.06
2022-08-21T18:38:27.546Z,98907.81
2022-08-21T18:41:15.380Z,98902.53
2022-08-21T18:44:03.670Z,98912.53
2022-08-21T18:46:31.774Z,98911.81
2022-08-21T18:49:19.517Z,98913.81
2022-08-21T18:51:47.739Z,98909.41
2022-08-21T18:54:15.703Z,98901.34
2022-08-21T18:56:45.240Z,98902.50
2022-08-21T18:59:15.060Z,98898.75
2022-08-21T19:01:43.283Z,98894.94
2022-08-21T19:04:30.135Z,98897.41
2022-08-21T19:07:04.817Z,98894.94
2022-08-21T19:09:35.765Z,98897.41
2022-08-21T19:12:04.334Z,98896.97
2022-08-21T19:14:33.329Z,98895.91
2022-08-21T19:17:02.920Z,98893.38
2022-08-21T19:19:32.917Z,98889.34
2022-08-21T19:22:01.614Z,98893.13
2022-08-21T19:24:33.132Z,98885.78
2022-08-21T19:27:03.360Z,98893.41
2022-08-21T19:29:34.556Z,98885.00
2022-08-21T19:32:06.237Z,98882.91
2022-08-21T19:34:36.360Z,98884.81
2022-08-21T19:37:06.421Z,98890.16
2022-08-21T19:39:42.361Z,98884.69
2022-08-21T19:42:14.947Z,98877.16
2022-08-21T19:44:43.872Z,98886.94
2022-08-21T19:47:19.041Z,98884.81
2022-08-21T19:49:51.259Z,98887.06
2022-08-21T19:52:18.969Z,98885.44
2022-08-21T19:54:46.771Z,98885.25
2022-08-21T19:57:14.594Z,98876.84
2022-08-21T19:59:42.848Z,98878.91
2022-08-21T20:02:13.482Z,98876.91
2022-08-21T20:04:53.435Z,98875.56
2022-08-21T20:07:26.760Z,98879.09
2022-08-21T20:10:10.594Z,98875.34
2022-08-21T20:12:38.259Z,98876.59
2022-08-21T20:15:07.672Z,98879.84
2022-08-21T20:17:35.782Z,98872.84
2022-08-21T20:20:04.868Z,98875.03
2022-08-21T20:22:32.395Z,98868.38
2022-08-21T20:25:00.405Z,98869.47
2022-08-21T20:27:28.670Z,98869.31
2022-08-21T20:29:56.538Z,98873.06
2022-08-21T20:32:24.603Z,98863.50
2022-08-21T20:34:53.933Z,98863.66
2022-08-21T20:37:36.707Z,98860.38
2022-08-21T20:42:59.431Z,98862.91
2022-08-21T20:45:33.797Z,98852.31
2022-08-21T20:48:04.833Z,98846.81
2022-08-21T20:50:36.931Z,98844.28
2022-08-21T20:53:18.609Z,98840.56
2022-08-21T20:55:48.854Z,98838.34
2022-08-21T20:58:34.588Z,98836.59
2022-08-21T21:01:06.592Z,98832.75
2022-08-21T21:03:37.444Z,98834.97
2022-08-21T21:06:09.068Z,98840.59
2022-08-21T21:08:50.961Z,98841.53
2022-08-21T21:11:20.252Z,98846.06
2022-08-21T21:13:53.500Z,98841.97
2022-08-21T21:16:27.266Z,98840.97
2022-08-21T21:19:04.692Z,98836.91
2022-08-21T21:21:35.997Z,98833.41
2022-08-21T21:24:10.474Z,98843.19
2022-08-21T21:26:46.224Z,98835.34
2022-08-21T21:29:29.851Z,98829.69
2022-08-21T21:31:57.895Z,98823.69
2022-08-21T21:34:28.007Z,98823.41
2022-08-21T21:37:16.568Z,98829.78
2022-08-21T21:40:01.975Z,98830.03
2022-08-21T21:42:58.307Z,98833.03
2022-08-21T21:45:35.784Z,98824.81
2022-08-21T21:48:32.905Z,98832.31
2022-08-21T21:51:15.769Z,98833.19
2022-08-21T21:53:56.546Z,98819.56
2022-08-21T21:56:59.902Z,98819.75
2022-08-21T21:59:58.790Z,98820.44
2022-08-21T22:05:12.720Z,98816.84
2022-08-21T22:07:45.116Z,98816.25
2022-08-21T22:10:32.491Z,98812.66
2022-08-21T22:13:26.493Z,98815.22
2022-08-21T22:15:55.638Z,98817.69
2022-08-21T22:18:27.300Z,98824.63
2022-08-21T22:21:03.442Z,98817.28
2022-08-21T22:23:34.528Z,98805.16
2022-08-21T22:26:08.740Z,98811.34
2022-08-21T22:28:39.993Z,98803.47
2022-08-21T22:31:27.821Z,98808.06
2022-08-21T22:37:03.436Z,98803.31
2022-08-21T22:39:44.039Z,98801.78
2022-08-21T22:42:14.905Z,98801.78
2022-08-21T22:44:53.926Z,98798.78
2022-08-21T22:47:34.718Z,98801.94
2022-08-21T22:50:06.492Z,98804.09
2022-08-21T22:52:36.278Z,98802.00
2022-08-21T22:55:32.319Z,98811.41
2022-08-21T22:58:20.435Z,98810.59
2022-08-21T23:01:06.202Z,98801.19
2022-08-21T23:03:44.550Z,98798.63
2022-08-21T23:06:46.521Z,98789.84
2022-08-21T23:09:21.644Z,98786.28
2022-08-21T23:14:37.209Z,98788.59
2022-08-21T23:17:14.404Z,98785.88
2022-08-21T23:20:10.037Z,98784.19
2022-08-21T23:22:58.906Z,98782.13
2022-08-21T23:25:53.029Z,98785.03
2022-08-21T23:31:33.331Z,98775.81
2022-08-21T23:34:10.570Z,98777.91
2022-08-21T23:37:23.098Z,98777.44
2022-08-21T23:40:13.862Z,98765.69
2022-08-21T23:43:09.677Z,98773.69
2022-08-21T23:45:58.492Z,98772.41
2022-08-21T23:48:52.417Z,98779.13
2022-08-21T23:51:46.040Z,98776.78
2022-08-21T23:54:22.476Z,98778.28
2022-08-21T23:57:02.645Z,98760.19
2022-08-21T23:59:54.128Z,98766.59
